Terminal Aerodrome Forecast
Issued by NWS Blacksburg, VA

Home | Current Version | Previous Version | Text Only | Print | Product List | Glossary On
Versions: 1 2 3 4 5 6 7 8 9 10 11 12 13 14 15 16 17 18 19 20 21 22 23 24 25 26 27 28 29 30 31 32 33 34 35 36 37
000
FTUS41 KRNK 242340
TAFDAN
TAF
KDAN 242340Z 2500/2524 19006KT P6SM BKN250
     FM251000 27005KT P6SM SCT100 BKN250
     FM251500 32007KT P6SM SCT100 OVC250=

USA.gov is the U.S. government's official web portal to all federal, state and local government web resources and services.